Time;durP1;ratioP1;P1;durP2;ratioP2;P2;SDS_P1;SDS_P2;PMS_P1;PMS_P2;Temp;Humidity;BMP_temperature;BMP_pressure;BME280_temperature;BME280_humidity;BME280_pressure;Samples;Min_cycle;Max_cycle;Signal;HPM_P1;HPM_P2
2021/01/04 00:03:25;;;;;;;8.57;5.70;;;;;;;3.66;80.78;100485.16;8600603;33;20160;-73
2021/01/04 00:09:03;;;;;;;8.67;4.83;;;;;;;3.77;80.65;100477.69;8601427;33;20227;-74
2021/01/04 00:14:45;;;;;;;10.60;4.73;;;;;;;3.75;80.58;100487.44;8600594;33;20480;-74
2021/01/04 00:19:55;;;;;;;6.93;4.47;;;;;;;3.78;80.91;100492.59;8575717;33;20585;-74
2021/01/04 00:25:11;;;;;;;8.10;5.30;;;;;;;3.74;80.56;100486.59;8600361;33;20304;-74
2021/01/04 00:30:28;;;;;;;7.00;4.30;;;;;;;3.76;80.70;100486.53;8599840;33;20634;-74
2021/01/04 00:35:31;;;;;;;9.07;4.73;;;;;;;3.69;80.50;100482.38;8601791;33;20157;-74
2021/01/04 00:40:45;;;;;;;6.10;4.37;;;;;;;3.73;80.78;100474.31;8583398;33;20244;-74
2021/01/04 00:45:49;;;;;;;6.90;4.57;;;;;;;3.73;80.56;100481.34;8608193;33;20441;-72
2021/01/04 00:51:03;;;;;;;11.30;5.17;;;;;;;3.74;80.45;100477.81;8607326;33;20736;-74
2021/01/04 00:56:27;;;;;;;11.23;5.23;;;;;;;3.76;80.61;100483.91;8581184;33;20276;-74
2021/01/04 01:01:46;;;;;;;10.77;5.17;;;;;;;3.81;80.59;100481.91;8580108;33;20431;-74
2021/01/04 01:06:58;;;;;;;13.47;5.20;;;;;;;3.78;80.48;100485.56;8580720;33;21069;-73
2021/01/04 01:12:33;;;;;;;8.13;4.93;;;;;;;3.79;80.66;100478.50;8604264;33;20711;-74
2021/01/04 01:18:12;;;;;;;8.50;4.50;;;;;;;3.78;80.38;100485.56;8661431;33;21993;-74
2021/01/04 01:23:14;;;;;;;7.70;4.07;;;;;;;3.82;80.55;100493.38;8661453;33;20211;-74
2021/01/04 01:29:03;;;;;;;7.60;4.50;;;;;;;3.89;80.52;100501.00;8661276;33;20640;-74
2021/01/04 01:34:27;;;;;;;6.03;4.17;;;;;;;3.83;80.17;100503.88;8636506;33;20546;-72
2021/01/04 01:40:05;;;;;;;8.57;5.20;;;;;;;3.86;80.18;100508.19;8660983;33;20161;-74
2021/01/04 01:45:18;;;;;;;6.93;4.33;;;;;;;3.87;80.04;100517.88;8660938;33;20165;-74
2021/01/04 01:50:36;;;;;;;8.00;4.60;;;;;;;3.87;80.15;100513.44;8660549;33;20179;-73
2021/01/04 01:56:06;;;;;;;7.77;4.77;;;;;;;3.83;80.04;100518.88;8636565;33;20443;-73
2021/01/04 02:01:20;;;;;;;7.17;4.37;;;;;;;3.76;79.91;100515.63;8659387;33;20595;-74
2021/01/04 02:06:46;;;;;;;8.47;4.73;;;;;;;3.84;80.13;100518.84;8660815;33;20152;-74
2021/01/04 02:11:55;;;;;;;8.90;4.73;;;;;;;3.79;79.99;100510.22;8649340;33;20282;-72
2021/01/04 02:17:13;;;;;;;7.63;4.90;;;;;;;3.82;80.08;100511.88;8660259;33;20184;-74
2021/01/04 02:23:03;;;;;;;8.33;4.77;;;;;;;3.85;80.27;100515.25;8659161;33;20715;-74
2021/01/04 02:28:24;;;;;;;8.63;4.17;;;;;;;3.86;80.25;100513.47;8596493;33;20557;-74
2021/01/04 02:33:26;;;;;;;12.20;5.93;;;;;;;3.83;80.36;100516.22;8659463;33;21627;-74
2021/01/04 02:38:37;;;;;;;9.57;5.47;;;;;;;3.78;80.32;100514.63;8660401;33;20173;-74
2021/01/04 02:43:41;;;;;;;6.20;4.40;;;;;;;3.81;80.26;100518.91;8658840;33;20696;-74
2021/01/04 02:49:02;;;;;;;5.80;4.13;;;;;;;3.80;80.03;100509.28;8661131;33;20701;-73
2021/01/04 02:54:20;;;;;;;8.50;5.10;;;;;;;3.84;80.29;100508.25;8659305;33;20550;-74
2021/01/04 02:59:50;;;;;;;8.47;4.60;;;;;;;3.82;80.12;100503.94;8657494;33;21343;-74
2021/01/04 03:04:53;;;;;;;9.57;4.73;;;;;;;3.77;80.07;100506.75;8658779;33;21663;-73
2021/01/04 03:09:58;;;;;;;8.00;4.47;;;;;;;3.78;80.24;100513.75;8634452;33;20670;-74
2021/01/04 03:15:31;;;;;;;7.63;4.40;;;;;;;3.78;80.25;100517.28;8634983;33;20215;-73
2021/01/04 03:20:35;;;;;;;9.23;5.13;;;;;;;3.82;80.94;100520.66;8657409;33;20513;-72
2021/01/04 03:25:45;;;;;;;9.23;4.70;;;;;;;3.81;80.79;100516.28;8658363;33;20271;-74
2021/01/04 03:30:48;;;;;;;11.80;4.60;;;;;;;3.77;80.32;100514.69;8633639;33;20219;-74
2021/01/04 03:35:52;;;;;;;7.67;4.17;;;;;;;3.80;80.35;100517.22;8658303;33;20693;-72
2021/01/04 03:40:54;;;;;;;6.07;3.93;;;;;;;3.69;80.12;100517.59;8657011;33;20704;-74
2021/01/04 03:45:58;;;;;;;8.60;4.23;;;;;;;3.56;80.38;100513.66;8658211;33;20432;-73
2021/01/04 03:51:00;;;;;;;7.80;4.33;;;;;;;3.61;80.64;100518.81;8657546;33;20661;-73
2021/01/04 03:56:03;;;;;;;8.13;4.23;;;;;;;3.60;80.55;100522.38;8657433;33;20196;-73
2021/01/04 04:01:06;;;;;;;10.73;4.90;;;;;;;3.55;80.70;100517.25;8657782;33;21506;-72
2021/01/04 04:06:11;;;;;;;6.63;3.97;;;;;;;3.54;80.97;100519.03;8633715;33;20525;-73
2021/01/04 04:11:15;;;;;;;6.13;4.13;;;;;;;3.53;80.56;100522.56;8661341;33;21080;-72
2021/01/04 04:16:18;;;;;;;9.87;5.90;;;;;;;3.49;81.02;100518.31;8638502;33;21615;-73
2021/01/04 04:21:20;;;;;;;8.60;4.97;;;;;;;3.46;80.93;100526.34;8661853;33;20186;-73
2021/01/04 04:26:26;;;;;;;9.73;4.77;;;;;;;3.47;81.01;100521.94;8638123;33;20348;-73
2021/01/04 04:31:29;;;;;;;7.93;4.30;;;;;;;3.48;81.22;100532.47;8661577;33;20180;-72
2021/01/04 04:36:31;;;;;;;11.13;4.60;;;;;;;3.55;81.18;100536.59;8661897;33;20234;-73
2021/01/04 04:41:37;;;;;;;11.17;4.93;;;;;;;3.56;81.15;100535.69;8661438;33;20303;-72
2021/01/04 04:46:56;;;;;;;8.03;4.43;;;;;;;3.55;81.23;100541.00;8662164;33;20199;-72
2021/01/04 04:52:12;;;;;;;8.80;4.93;;;;;;;3.57;81.31;100533.91;8661033;33;20219;-72
2021/01/04 04:57:39;;;;;;;8.80;3.90;;;;;;;3.62;81.31;100534.59;8661326;33;20259;-72
2021/01/04 05:02:53;;;;;;;7.97;4.60;;;;;;;3.62;81.70;100539.00;8661085;33;20204;-72
2021/01/04 05:08:05;;;;;;;8.13;4.47;;;;;;;3.64;81.93;100540.69;8661331;33;21803;-71
2021/01/04 05:13:21;;;;;;;10.87;4.80;;;;;;;3.65;81.40;100536.25;8661144;33;20884;-72
2021/01/04 05:18:48;;;;;;;6.40;4.37;;;;;;;3.63;81.72;100538.09;8661057;33;20711;-73
2021/01/04 05:24:39;;;;;;;10.90;5.53;;;;;;;3.62;81.64;100536.38;8636493;33;21293;-73
2021/01/04 05:30:22;;;;;;;6.90;4.40;;;;;;;3.64;81.44;100545.09;8660321;33;20489;-72
2021/01/04 05:35:28;;;;;;;6.97;3.67;;;;;;;3.65;81.62;100547.72;8661352;33;20567;-71
2021/01/04 05:40:59;;;;;;;7.53;3.93;;;;;;;3.70;81.44;100551.06;8660455;33;20156;-71
2021/01/04 05:46:09;;;;;;;7.27;4.17;;;;;;;3.66;81.66;100549.41;8659312;33;21536;-72
2021/01/04 05:51:19;;;;;;;8.13;5.30;;;;;;;3.67;81.77;100548.50;8660287;33;20185;-71
2021/01/04 05:56:29;;;;;;;7.37;4.47;;;;;;;3.69;81.59;100551.94;8659981;33;20189;-73
2021/01/04 06:01:31;;;;;;;9.77;4.80;;;;;;;3.71;81.62;100555.41;8659942;33;20198;-70
2021/01/04 06:06:49;;;;;;;8.07;3.63;;;;;;;3.72;81.82;100554.47;8660774;33;20684;-71
2021/01/04 06:11:56;;;;;;;7.07;4.50;;;;;;;3.72;82.00;100554.47;8635520;33;20188;-74
2021/01/04 06:17:02;;;;;;;9.30;4.27;;;;;;;3.72;81.93;100559.75;8660183;33;20149;-73
2021/01/04 06:22:10;;;;;;;9.17;5.27;;;;;;;3.77;81.60;100555.19;8659819;33;20183;-73
2021/01/04 06:27:18;;;;;;;11.17;5.57;;;;;;;3.86;81.81;100561.91;8660313;33;20280;-71
2021/01/04 06:32:28;;;;;;;9.63;5.30;;;;;;;3.87;81.72;100562.81;8659588;33;20327;-74
2021/01/04 06:37:33;;;;;;;9.83;5.73;;;;;;;3.86;81.80;100553.13;8659409;33;20291;-71
2021/01/04 06:42:40;;;;;;;13.53;6.50;;;;;;;3.85;81.92;100560.19;8659449;33;20207;-72
2021/01/04 06:47:52;;;;;;;10.73;6.40;;;;;;;3.88;81.76;100573.28;8659949;33;20471;-72
2021/01/04 06:53:41;;;;;;;11.73;5.60;;;;;;;3.85;81.57;100577.84;8676318;33;21588;-72
2021/01/04 06:59:49;;;;;;;13.83;6.63;;;;;;;3.90;81.64;100581.19;8659367;33;21667;-72
2021/01/04 07:06:04;;;;;;;16.27;6.87;;;;;;;3.93;81.70;100578.44;8619163;33;20581;-72
2021/01/04 07:11:32;;;;;;;15.67;6.90;;;;;;;3.98;81.43;100579.13;8658599;33;20275;-73
2021/01/04 07:16:55;;;;;;;16.27;7.13;;;;;;;3.95;81.30;100579.22;8634785;33;20192;-73
2021/01/04 07:22:04;;;;;;;14.50;6.40;;;;;;;3.97;81.49;100583.53;8658200;33;20503;-73
2021/01/04 07:27:40;;;;;;;14.13;6.63;;;;;;;3.96;80.94;100584.47;8658371;33;20351;-73
2021/01/04 07:32:55;;;;;;;17.93;6.87;;;;;;;3.94;81.24;100591.56;8658591;33;20658;-73
2021/01/04 07:38:21;;;;;;;13.90;6.97;;;;;;;4.00;81.15;100591.38;8657904;33;22085;-73
2021/01/04 07:43:49;;;;;;;15.70;6.67;;;;;;;4.02;81.21;100601.88;8658012;33;20515;-73
2021/01/04 07:49:33;;;;;;;14.50;6.60;;;;;;;4.07;81.02;100604.38;8657418;33;20235;-73
2021/01/04 07:55:28;;;;;;;12.17;5.70;;;;;;;4.09;80.85;100599.88;8657679;33;20642;-73
2021/01/04 08:01:24;;;;;;;13.37;6.30;;;;;;;4.13;80.80;100602.34;8656067;33;20800;-71
2021/01/04 08:07:15;;;;;;;11.77;6.23;;;;;;;4.15;81.10;100608.44;8642197;33;20811;-71
2021/01/04 08:12:43;;;;;;;12.00;6.30;;;;;;;4.24;80.78;100617.81;8657843;33;20208;-71
2021/01/04 08:17:52;;;;;;;14.13;7.17;;;;;;;4.25;80.90;100622.22;8657899;33;20586;-71
2021/01/04 08:23:30;;;;;;;13.33;6.10;;;;;;;4.33;81.04;100622.75;8657435;33;21274;-72
2021/01/04 08:28:41;;;;;;;14.47;6.50;;;;;;;4.43;81.24;100616.22;8656988;33;20191;-72
2021/01/04 08:33:51;;;;;;;13.17;5.93;;;;;;;4.50;80.99;100626.56;8657159;33;21551;-71
2021/01/04 08:39:11;;;;;;;8.87;4.57;;;;;;;4.56;81.20;100636.94;8657015;33;20727;-72
2021/01/04 08:44:17;;;;;;;24.47;11.33;;;;;;;4.85;81.45;100636.69;8635420;33;20184;-71
2021/01/04 08:49:27;;;;;;;27.42;12.55;;;;;;;5.05;81.17;100632.38;8599056;33;20150;-72
2021/01/04 08:54:32;;;;;;;22.65;11.27;;;;;;;5.05;81.03;100630.59;8574820;33;20444;-71
2021/01/04 08:59:35;;;;;;;18.02;8.30;;;;;;;5.02;80.72;100622.75;8602751;33;20189;-71
2021/01/04 09:04:40;;;;;;;19.23;8.85;;;;;;;4.96;80.92;100630.94;8604631;33;20189;-71
2021/01/04 09:09:49;;;;;;;17.37;8.83;;;;;;;4.98;81.23;100629.09;8604027;33;20772;-72
2021/01/04 09:14:57;;;;;;;16.38;9.02;;;;;;;4.96;81.17;100622.97;8603780;33;20905;-71
2021/01/04 09:20:13;;;;;;;18.17;8.50;;;;;;;4.94;80.79;100631.91;8603209;33;20224;-71
2021/01/04 09:25:21;;;;;;;17.70;8.60;;;;;;;4.86;80.82;100638.38;8603401;33;20830;-72
2021/01/04 09:30:26;;;;;;;16.03;7.73;;;;;;;4.84;81.14;100636.72;8604275;33;21766;-73
2021/01/04 09:35:41;;;;;;;16.17;7.77;;;;;;;4.86;80.97;100643.69;8602841;33;20726;-70
2021/01/04 09:40:49;;;;;;;18.63;8.50;;;;;;;4.84;81.06;100632.28;8602868;33;20250;-72
2021/01/04 09:46:12;;;;;;;17.05;7.63;;;;;;;4.84;80.99;100634.06;8601310;33;20219;-72
2021/01/04 09:51:27;;;;;;;16.23;8.17;;;;;;;4.88;81.27;100630.38;8600387;33;20938;-72
2021/01/04 09:56:36;;;;;;;18.47;8.83;;;;;;;4.83;80.88;100637.66;8602315;34;20579;-71
2021/01/04 10:01:46;;;;;;;15.33;8.00;;;;;;;4.84;80.94;100634.94;8602011;34;20685;-71
2021/01/04 10:06:50;;;;;;;13.80;7.45;;;;;;;4.78;80.43;100637.81;8602155;33;20169;-72
2021/01/04 10:11:52;;;;;;;12.67;6.63;;;;;;;4.83;81.05;100641.16;8602210;33;20183;-72
2021/01/04 10:16:57;;;;;;;14.10;8.20;;;;;;;4.89;81.07;100629.47;8602706;33;20199;-70
2021/01/04 10:22:07;;;;;;;12.43;7.07;;;;;;;4.88;80.63;100627.72;8602641;33;20191;-72
2021/01/04 10:27:10;;;;;;;13.13;6.87;;;;;;;4.87;80.69;100633.94;8602977;33;21129;-72
2021/01/04 10:32:33;;;;;;;16.73;7.53;;;;;;;4.81;80.82;100626.25;8600426;33;20189;-71
2021/01/04 10:37:45;;;;;;;11.27;6.70;;;;;;;4.72;80.20;100629.25;8599174;33;20774;-70
2021/01/04 10:43:00;;;;;;;12.20;6.40;;;;;;;4.64;80.22;100630.41;8574092;34;20208;-72
2021/01/04 10:48:12;;;;;;;12.03;6.63;;;;;;;4.64;80.48;100629.56;8598283;34;20274;-72
2021/01/04 10:53:32;;;;;;;15.13;7.07;;;;;;;4.66;80.49;100622.41;8577315;34;20718;-72
2021/01/04 10:58:42;;;;;;;11.13;6.20;;;;;;;4.65;80.65;100621.53;8602039;34;21713;-72
2021/01/04 11:03:56;;;;;;;10.10;5.90;;;;;;;4.66;80.86;100609.16;8577035;33;20662;-72
2021/01/04 11:09:12;;;;;;;11.07;5.77;;;;;;;4.65;80.45;100607.47;8601109;34;20188;-72
2021/01/04 11:14:18;;;;;;;10.83;5.73;;;;;;;4.69;81.21;100603.78;8577513;33;20255;-72
2021/01/04 11:19:38;;;;;;;8.33;4.83;;;;;;;4.74;80.97;100603.59;8600633;34;20569;-73
2021/01/04 11:24:42;;;;;;;11.43;5.00;;;;;;;4.76;81.19;100586.72;8600593;34;20225;-73
2021/01/04 11:29:45;;;;;;;7.93;5.07;;;;;;;4.82;80.86;100580.31;8589573;34;20231;-73
2021/01/04 11:34:49;;;;;;;8.60;5.37;;;;;;;5.03;80.95;100578.59;8600931;34;20149;-72
2021/01/04 11:39:54;;;;;;;8.37;5.60;;;;;;;5.05;80.56;100580.25;8600776;34;20256;-72
2021/01/04 11:44:58;;;;;;;9.37;5.67;;;;;;;5.12;80.32;100578.22;8597912;33;22374;-74
2021/01/04 11:50:00;;;;;;;9.85;6.45;;;;;;;5.07;80.75;100582.84;8599513;33;21998;-73
2021/01/04 11:55:09;;;;;;;9.80;5.77;;;;;;;4.98;80.43;100580.56;8599338;33;20594;-73
2021/01/04 12:00:14;;;;;;;7.23;5.03;;;;;;;4.89;80.33;100569.44;8599763;33;20181;-73
2021/01/04 12:05:17;;;;;;;7.87;4.77;;;;;;;4.95;80.14;100559.50;8599619;33;22133;-73
2021/01/04 12:10:22;;;;;;;8.75;5.15;;;;;;;5.01;80.24;100562.75;8599422;33;20335;-73
2021/01/04 12:15:26;;;;;;;10.53;5.87;;;;;;;4.99;80.25;100550.50;8599089;33;20437;-73
2021/01/04 12:20:30;;;;;;;8.63;5.15;;;;;;;4.93;79.91;100550.75;8599255;33;20558;-72
2021/01/04 12:25:33;;;;;;;8.45;5.53;;;;;;;4.95;80.21;100547.13;8597380;33;20150;-72
2021/01/04 12:30:37;;;;;;;8.37;5.63;;;;;;;4.89;80.06;100545.59;8567460;33;20207;-73
2021/01/04 12:35:39;;;;;;;6.03;4.57;;;;;;;4.82;80.18;100544.09;8571179;33;20862;-72
2021/01/04 12:40:43;;;;;;;7.63;5.00;;;;;;;4.84;80.26;100541.41;8602190;33;20293;-72
2021/01/04 12:45:45;;;;;;;6.97;4.83;;;;;;;4.94;80.22;100544.53;8603526;33;21799;-72
2021/01/04 12:50:48;;;;;;;7.47;4.47;;;;;;;5.02;80.08;100545.09;8604426;33;20224;-73
2021/01/04 12:55:51;;;;;;;9.30;4.70;;;;;;;5.10;80.17;100537.69;8604540;33;20188;-72
2021/01/04 13:00:53;;;;;;;7.20;4.50;;;;;;;5.29;79.73;100529.81;8603240;33;20200;-73
2021/01/04 13:05:56;;;;;;;6.87;4.43;;;;;;;5.23;79.51;100522.13;8604279;33;20174;-72
2021/01/04 13:10:59;;;;;;;6.60;4.30;;;;;;;5.03;79.35;100520.34;8603796;33;20197;-75
2021/01/04 13:16:02;;;;;;;7.73;4.90;;;;;;;5.02;79.73;100514.19;8604028;33;20316;-72
2021/01/04 13:21:04;;;;;;;7.10;4.87;;;;;;;4.95;79.65;100514.50;8602174;33;20899;-71
2021/01/04 13:26:08;;;;;;;6.40;4.43;;;;;;;4.94;79.43;100520.69;8602987;33;20425;-71
2021/01/04 13:31:10;;;;;;;6.47;4.97;;;;;;;4.99;79.78;100518.72;8601967;33;20165;-72
2021/01/04 13:36:13;;;;;;;5.90;4.37;;;;;;;4.97;79.58;100510.00;8602809;33;20184;-72
2021/01/04 13:41:17;;;;;;;9.10;5.00;;;;;;;4.89;79.62;100512.97;8600724;33;20189;-71
2021/01/04 13:46:21;;;;;;;7.17;4.70;;;;;;;4.84;79.43;100507.84;8577206;33;20193;-71
2021/01/04 13:51:24;;;;;;;7.80;4.67;;;;;;;4.85;79.88;100511.34;8601338;33;20849;-71
2021/01/04 13:56:28;;;;;;;7.37;4.67;;;;;;;4.74;79.32;100511.78;8599418;33;20443;-71
2021/01/04 14:01:31;;;;;;;8.03;5.53;;;;;;;4.82;80.17;100511.50;8600846;33;20185;-71
2021/01/04 14:06:39;;;;;;;8.73;5.03;;;;;;;4.73;79.75;100512.72;8601709;33;20235;-71
2021/01/04 14:11:42;;;;;;;8.00;5.00;;;;;;;4.71;79.65;100516.34;8599152;33;20267;-72
2021/01/04 14:16:45;;;;;;;8.77;5.50;;;;;;;4.74;80.00;100503.00;8600987;33;20189;-71
2021/01/04 14:21:51;;;;;;;8.23;5.10;;;;;;;4.66;79.33;100505.94;8600506;33;20239;-71
2021/01/04 14:27:01;;;;;;;10.07;5.77;;;;;;;4.66;79.35;100504.19;8575535;33;20288;-71
2021/01/04 14:32:04;;;;;;;8.27;5.37;;;;;;;4.75;79.77;100508.25;8597101;33;20197;-71
2021/01/04 14:37:06;;;;;;;9.77;5.70;;;;;;;4.76;79.74;100507.31;8601119;33;20193;-70
2021/01/04 14:42:18;;;;;;;18.70;9.35;;;;;;;4.67;79.11;100505.03;8600930;33;20491;-70
2021/01/04 14:47:21;;;;;;;9.93;6.10;;;;;;;4.61;78.96;100508.81;8600552;33;20639;-70
2021/01/04 14:52:24;;;;;;;10.87;6.03;;;;;;;4.64;79.55;100508.69;8600371;33;20962;-71
2021/01/04 14:57:28;;;;;;;14.80;8.60;;;;;;;4.59;79.29;100508.00;8600848;33;20532;-72
2021/01/04 15:02:31;;;;;;;11.53;5.77;;;;;;;4.58;79.14;100515.97;8597274;33;20272;-70
2021/01/04 15:07:33;;;;;;;9.27;5.43;;;;;;;4.57;79.45;100519.56;8600759;33;20189;-72
2021/01/04 15:12:37;;;;;;;17.33;7.27;;;;;;;4.50;79.30;100528.66;8576683;33;20141;-71
2021/01/04 15:17:39;;;;;;;8.57;5.13;;;;;;;4.40;79.21;100520.22;8600853;33;20196;-70
2021/01/04 15:22:42;;;;;;;10.47;5.53;;;;;;;4.44;79.46;100520.06;8600294;33;20185;-72
2021/01/04 15:27:45;;;;;;;7.87;5.63;;;;;;;4.41;79.41;100525.44;8599879;33;20327;-72
2021/01/04 15:32:47;;;;;;;11.30;6.40;;;;;;;4.35;80.02;100522.19;8600243;33;20247;-72
2021/01/04 15:37:50;;;;;;;11.23;6.47;;;;;;;4.36;80.23;100524.78;8602464;33;20200;-73
2021/01/04 15:42:53;;;;;;;12.97;6.70;;;;;;;4.33;80.52;100524.88;8575792;33;21690;-72
2021/01/04 15:47:56;;;;;;;9.87;6.17;;;;;;;4.36;80.61;100521.25;8599987;33;20180;-72
2021/01/04 15:52:58;;;;;;;13.53;7.60;;;;;;;4.33;80.79;100511.66;8598780;33;20696;-72
2021/01/04 15:58:02;;;;;;;10.80;6.00;;;;;;;4.30;80.61;100513.56;8598247;33;20227;-73
2021/01/04 16:03:05;;;;;;;12.20;6.93;;;;;;;4.30;80.85;100516.22;8598933;33;20272;-73
2021/01/04 16:08:09;;;;;;;11.30;6.40;;;;;;;4.27;80.64;100519.84;8581435;33;20199;-73
2021/01/04 16:13:12;;;;;;;12.53;6.90;;;;;;;4.24;80.54;100523.47;8624034;33;20196;-73
2021/01/04 16:18:14;;;;;;;12.77;7.57;;;;;;;4.17;80.65;100518.50;8604943;33;20243;-73
2021/01/04 16:23:16;;;;;;;12.43;6.53;;;;;;;4.17;80.48;100529.06;8581294;33;20145;-73
2021/01/04 16:28:20;;;;;;;9.13;5.77;;;;;;;4.13;80.46;100522.16;8604261;33;20608;-73
2021/01/04 16:33:22;;;;;;;8.40;5.90;;;;;;;4.10;80.47;100519.63;8580017;33;20185;-72
2021/01/04 16:38:25;;;;;;;11.13;6.30;;;;;;;4.12;80.39;100525.72;8603703;33;20689;-73
2021/01/04 16:43:28;;;;;;;11.43;6.60;;;;;;;4.05;80.41;100517.16;8602812;33;20181;-74
2021/01/04 16:48:31;;;;;;;15.00;7.50;;;;;;;4.05;80.36;100532.16;8602655;33;20654;-73
2021/01/04 16:53:33;;;;;;;11.63;6.47;;;;;;;4.04;80.51;100525.16;8578413;33;20269;-73
2021/01/04 16:58:36;;;;;;;12.50;6.47;;;;;;;3.96;80.22;100528.09;8602663;33;20247;-73
2021/01/04 17:03:38;;;;;;;11.70;6.30;;;;;;;3.90;80.53;100528.31;8601857;33;20246;-73
2021/01/04 17:08:45;;;;;;;12.40;6.23;;;;;;;3.88;81.14;100525.72;8602212;33;20340;-73
2021/01/04 17:13:48;;;;;;;9.10;6.00;;;;;;;3.91;80.39;100517.66;8595723;33;20184;-71
2021/01/04 17:18:51;;;;;;;8.57;5.33;;;;;;;3.97;80.42;100529.78;8602410;33;20640;-73
2021/01/04 17:23:57;;;;;;;9.53;5.53;;;;;;;3.85;80.86;100528.47;8602685;33;20682;-72
2021/01/04 17:29:01;;;;;;;13.43;6.80;;;;;;;3.87;81.19;100536.38;8602482;33;20212;-72
2021/01/04 17:34:05;;;;;;;12.20;7.07;;;;;;;3.88;81.21;100538.94;8602936;33;20268;-73
2021/01/04 17:39:09;;;;;;;12.80;6.53;;;;;;;3.81;81.01;100537.41;8603190;33;20213;-74
2021/01/04 17:44:13;;;;;;;12.27;6.27;;;;;;;3.74;80.77;100538.59;8602568;33;21374;-73
2021/01/04 17:49:16;;;;;;;14.23;7.03;;;;;;;3.81;81.26;100541.84;8603428;33;20244;-74
2021/01/04 17:54:18;;;;;;;12.97;6.57;;;;;;;3.85;80.97;100538.19;8578959;33;20745;-74
2021/01/04 17:59:21;;;;;;;14.50;7.77;;;;;;;3.88;80.77;100543.38;8602653;33;21224;-72
2021/01/04 18:04:24;;;;;;;15.00;8.23;;;;;;;3.91;80.88;100541.47;8603034;33;20241;-73
2021/01/04 18:09:26;;;;;;;14.70;7.47;;;;;;;3.82;80.53;100543.59;8602958;33;20279;-74
2021/01/04 18:14:33;;;;;;;14.33;7.70;;;;;;;3.84;80.40;100547.03;8603094;33;20505;-74
2021/01/04 18:19:35;;;;;;;17.10;8.87;;;;;;;3.83;80.48;100548.81;8600165;33;20923;-74
2021/01/04 18:24:37;;;;;;;13.80;7.83;;;;;;;3.85;80.39;100554.06;8597356;33;20202;-72
2021/01/04 18:29:40;;;;;;;17.47;8.67;;;;;;;3.89;80.39;100556.50;8601048;33;20600;-72
2021/01/04 18:34:43;;;;;;;12.90;7.27;;;;;;;3.88;80.45;100562.72;8601570;33;20207;-74
2021/01/04 18:39:46;;;;;;;18.80;9.83;;;;;;;3.90;80.44;100563.53;8566474;33;20671;-74
2021/01/04 18:44:49;;;;;;;15.67;8.03;;;;;;;3.86;80.52;100564.56;8600695;33;20185;-74
2021/01/04 18:49:51;;;;;;;13.40;7.90;;;;;;;3.91;80.69;100564.41;8599517;33;21760;-74
2021/01/04 18:54:54;;;;;;;17.43;8.17;;;;;;;3.97;81.05;100564.16;8599565;33;21296;-74
2021/01/04 18:59:57;;;;;;;12.30;7.40;;;;;;;4.07;80.80;100567.34;8599275;33;20189;-74
2021/01/04 19:04:59;;;;;;;12.73;6.77;;;;;;;4.08;80.24;100553.19;8600265;33;20181;-74
2021/01/04 19:10:03;;;;;;;13.37;7.23;;;;;;;4.05;79.88;100564.75;8599685;33;20378;-74
2021/01/04 19:15:10;;;;;;;21.70;10.63;;;;;;;4.07;80.23;100568.19;8599736;33;20232;-74
2021/01/04 19:20:13;;;;;;;19.57;9.40;;;;;;;4.11;80.06;100566.28;8596349;33;20726;-74
2021/01/04 19:25:18;;;;;;;18.33;7.90;;;;;;;4.11;80.08;100576.88;8575431;33;20243;-72
2021/01/04 19:30:22;;;;;;;17.27;9.20;;;;;;;4.11;80.24;100576.88;8599744;33;20184;-74
2021/01/04 19:35:25;;;;;;;18.47;9.40;;;;;;;4.13;79.99;100575.91;8599944;33;21638;-74
2021/01/04 19:40:27;;;;;;;15.93;8.83;;;;;;;4.13;80.11;100585.63;8599281;33;20207;-74
2021/01/04 19:45:31;;;;;;;12.73;7.07;;;;;;;4.11;79.84;100587.44;8600179;33;21860;-74
2021/01/04 19:50:33;;;;;;;14.40;7.47;;;;;;;4.08;79.74;100574.34;8575528;33;21682;-73
2021/01/04 19:55:35;;;;;;;16.23;7.83;;;;;;;4.11;80.01;100574.22;8599712;33;20784;-73
2021/01/04 20:00:38;;;;;;;20.10;9.53;;;;;;;4.15;80.01;100578.50;8552491;33;20622;-74
2021/01/04 20:05:41;;;;;;;18.90;9.53;;;;;;;4.20;80.52;100580.06;8599353;33;20538;-72
2021/01/04 20:10:43;;;;;;;17.37;8.70;;;;;;;4.19;80.27;100577.44;8612744;33;20323;-73
2021/01/04 20:15:50;;;;;;;15.57;7.67;;;;;;;4.20;80.23;100573.91;8656365;33;20283;-71
2021/01/04 20:20:53;;;;;;;16.20;8.60;;;;;;;4.15;80.17;100566.13;8656125;33;20692;-71
2021/01/04 20:25:55;;;;;;;21.77;10.50;;;;;;;4.15;80.36;100574.06;8619183;33;20247;-71
2021/01/04 20:30:58;;;;;;;18.30;9.17;;;;;;;4.14;79.97;100567.06;8600735;33;20189;-71
2021/01/04 20:36:01;;;;;;;14.30;7.80;;;;;;;4.10;80.05;100569.88;8636431;33;20142;-70
2021/01/04 20:41:06;;;;;;;14.47;7.40;;;;;;;4.09;79.69;100570.81;8597348;33;20918;-71
2021/01/04 20:46:09;;;;;;;12.93;7.47;;;;;;;4.10;79.55;100561.94;8597560;33;20688;-71
2021/01/04 20:51:11;;;;;;;14.07;7.27;;;;;;;4.10;79.93;100565.44;8598669;33;20243;-71
2021/01/04 20:56:14;;;;;;;14.70;7.43;;;;;;;4.10;79.78;100565.44;8603859;33;20169;-71
2021/01/04 21:01:17;;;;;;;16.27;8.73;;;;;;;4.11;79.78;100564.50;8603026;33;20185;-71
2021/01/04 21:06:20;;;;;;;16.90;7.77;;;;;;;4.04;79.30;100565.69;8603272;33;20461;-71
2021/01/04 21:11:22;;;;;;;16.83;7.87;;;;;;;4.02;79.35;100562.22;8603643;33;20264;-71
2021/01/04 21:16:25;;;;;;;16.90;8.23;;;;;;;4.03;79.59;100560.44;8603121;33;20726;-70
2021/01/04 21:21:27;;;;;;;15.80;8.00;;;;;;;4.04;79.56;100559.53;8602167;33;20197;-70
2021/01/04 21:26:33;;;;;;;16.30;7.20;;;;;;;4.01;79.08;100558.72;8601999;33;20471;-71
2021/01/04 21:31:38;;;;;;;15.47;7.40;;;;;;;4.01;79.19;100561.34;8601583;33;20192;-70
2021/01/04 21:36:41;;;;;;;15.00;7.57;;;;;;;4.03;79.28;100568.38;8599049;33;20676;-71
2021/01/04 21:41:45;;;;;;;17.60;7.40;;;;;;;3.97;79.16;100566.81;8602243;33;20176;-70
2021/01/04 21:46:49;;;;;;;17.37;8.60;;;;;;;3.98;79.15;100566.75;8602787;33;20193;-70
2021/01/04 21:51:51;;;;;;;17.50;8.07;;;;;;;4.03;79.63;100566.56;8602840;33;20292;-71
2021/01/04 21:56:55;;;;;;;18.60;8.47;;;;;;;3.99;79.25;100557.03;8602898;33;20473;-71
2021/01/04 22:02:02;;;;;;;17.23;8.03;;;;;;;4.04;79.34;100565.69;8601912;33;20180;-70
2021/01/04 22:07:04;;;;;;;17.50;8.60;;;;;;;3.97;79.04;100566.81;8602923;33;20173;-72
2021/01/04 22:12:07;;;;;;;18.50;8.70;;;;;;;4.01;79.31;100558.72;8602236;33;20200;-72
2021/01/04 22:17:10;;;;;;;17.53;8.43;;;;;;;4.07;79.10;100567.34;8602302;33;20533;-71
2021/01/04 22:22:13;;;;;;;22.63;10.57;;;;;;;4.10;79.58;100561.94;8601419;33;20941;-71
2021/01/04 22:27:16;;;;;;;20.87;9.33;;;;;;;4.08;79.48;100561.13;8602197;33;20181;-71
2021/01/04 22:32:19;;;;;;;20.10;9.10;;;;;;;4.03;78.92;100563.94;8602105;33;20189;-71
2021/01/04 22:37:22;;;;;;;18.87;10.03;;;;;;;4.01;78.75;100574.56;8601927;33;20141;-71
2021/01/04 22:42:24;;;;;;;21.73;10.30;;;;;;;3.99;78.86;100570.25;8601298;33;20201;-71
2021/01/04 22:47:27;;;;;;;17.33;8.50;;;;;;;3.99;78.72;100564.97;8600123;33;20220;-71
2021/01/04 22:52:29;;;;;;;19.90;9.57;;;;;;;3.95;78.81;100566.88;8601002;33;20379;-72
2021/01/04 22:57:32;;;;;;;22.17;9.83;;;;;;;4.04;78.90;100565.69;8601346;33;20377;-71
2021/01/04 23:02:36;;;;;;;18.73;9.37;;;;;;;4.01;78.89;100564.00;8601033;33;20255;-71
2021/01/04 23:07:38;;;;;;;19.53;8.57;;;;;;;4.04;79.01;100559.53;8601840;33;20189;-71
2021/01/04 23:12:40;;;;;;;24.47;10.10;;;;;;;4.03;78.90;100561.28;8600304;33;20767;-71
2021/01/04 23:17:44;;;;;;;24.27;9.23;;;;;;;4.08;79.26;100556.69;8600048;33;21289;-71
2021/01/04 23:22:47;;;;;;;19.03;9.50;;;;;;;4.08;79.49;100558.47;8600168;33;20268;-71
2021/01/04 23:27:50;;;;;;;22.03;10.03;;;;;;;4.10;79.73;100552.22;8600538;33;20858;-70
2021/01/04 23:32:53;;;;;;;23.13;9.23;;;;;;;4.10;79.52;100557.50;8600656;33;20238;-71
2021/01/04 23:37:55;;;;;;;20.40;9.10;;;;;;;4.04;79.59;100559.53;8600191;33;20247;-71
2021/01/04 23:42:57;;;;;;;24.03;11.47;;;;;;;4.08;79.80;100558.47;8600491;33;20696;-71
2021/01/04 23:48:01;;;;;;;16.97;8.97;;;;;;;4.00;79.31;100554.34;8600141;33;20908;-71
2021/01/04 23:53:03;;;;;;;21.77;10.20;;;;;;;4.10;79.74;100548.72;8599123;33;20202;-71
2021/01/04 23:58:06;;;;;;;21.67;8.87;;;;;;;4.08;79.63;100547.91;8599159;33;20181;-71
